Thomson Dream — 9HA2381 — position and weather

sailwx.info

Track history (hours):
 
Tides and Currents Weather Stations Pressure Air Temp Water Temp Dewpoint Dewpoint Depression Visibility Wind Speed Wind Dir Waves Ship Positions

Thomson Dream

Last reported at 2016-Dec-04 04:25 UTC. Time now 2016-Dec-08 05:59 UTC.
Position N 20°33' W 086°57'.

Length 243 m; draft 7.6 m.

Type: Ship. MMSI: 248480975.

Date/timePositionNaut miles runAvg speedWind from/ knotsBaromVisibWave heightAir tempDewpointWater temp
2016-Dec-04 04:25N 20°33' W 086°57'2 2.8
2016-Dec-04 03:33N 20°31' W 086°57'0 0.0
2016-Dec-04 02:33N 20°31' W 086°57'0 0.0
2016-Dec-04 01:33N 20°31' W 086°57'0 0.0
2016-Dec-04 00:33N 20°31' W 086°57'0 0.0
2016-Dec-03 23:33N 20°31' W 086°57'0 0.0
2016-Dec-03 22:33N 20°31' W 086°57'0 0.0
2016-Dec-03 21:33N 20°31' W 086°57'0 0.0
2016-Dec-03 20:33N 20°31' W 086°57'0 0.0
2016-Dec-03 19:33N 20°31' W 086°57'0 0.0
2016-Dec-03 18:33N 20°31' W 086°57'0 0.0
2016-Dec-03 17:33N 20°31' W 086°57'0 0.0
2016-Dec-03 16:33N 20°31' W 086°57'0 0.0
2016-Dec-03 15:33N 20°31' W 086°57'0 0.0
2016-Dec-03 14:33N 20°31' W 086°57'0 0.0
2016-Dec-03 13:33N 20°31' W 086°57'3 3.3
2016-Dec-03 12:33N 20°34' W 086°57'  
2016-Nov-25 05:33N 17°48' W 066°44'1717.1
2016-Nov-25 04:34N 17°49' W 066°26'1716.9
2016-Nov-25 03:34N 17°51' W 066°09'8516.8
2016-Nov-24 22:30N 18°15' W 064°43'11 1.0
2016-Nov-24 11:18N 18°25' W 064°36'7 9.5
2016-Nov-24 10:33N 18°20' W 064°31'7813.0
2016-Nov-24 04:32N 17°47' W 063°16'  
Track history (hours):
 
Tides and Currents Weather Stations Pressure Air Temp Water Temp Dewpoint Dewpoint Depression Visibility Wind Speed Wind Dir Waves Ship Positions

Thomson Dream

Last reported at 2016-Dec-04 04:25 UTC. Time now 2016-Dec-08 05:59 UTC.
Position N 20°33' W 086°57'.

Length 243 m; draft 7.6 m.

Type: Ship. MMSI: 248480975.

Date/timePositionNaut miles runAvg speedWind from/ knotsBaromVisibWave heightAir tempDewpointWater temp
2016-Dec-04 04:25N 20°33' W 086°57'2 2.8
2016-Dec-04 03:33N 20°31' W 086°57'0 0.0
2016-Dec-04 02:33N 20°31' W 086°57'0 0.0
2016-Dec-04 01:33N 20°31' W 086°57'0 0.0
2016-Dec-04 00:33N 20°31' W 086°57'0 0.0
2016-Dec-03 23:33N 20°31' W 086°57'0 0.0
2016-Dec-03 22:33N 20°31' W 086°57'0 0.0
2016-Dec-03 21:33N 20°31' W 086°57'0 0.0
2016-Dec-03 20:33N 20°31' W 086°57'0 0.0
2016-Dec-03 19:33N 20°31' W 086°57'0 0.0
2016-Dec-03 18:33N 20°31' W 086°57'0 0.0
2016-Dec-03 17:33N 20°31' W 086°57'0 0.0
2016-Dec-03 16:33N 20°31' W 086°57'0 0.0
2016-Dec-03 15:33N 20°31' W 086°57'0 0.0
2016-Dec-03 14:33N 20°31' W 086°57'0 0.0
2016-Dec-03 13:33N 20°31' W 086°57'3 3.3
2016-Dec-03 12:33N 20°34' W 086°57'  
2016-Nov-25 05:33N 17°48' W 066°44'1717.1
2016-Nov-25 04:34N 17°49' W 066°26'1716.9
2016-Nov-25 03:34N 17°51' W 066°09'8516.8
2016-Nov-24 22:30N 18°15' W 064°43'11 1.0
2016-Nov-24 11:18N 18°25' W 064°36'7 9.5
2016-Nov-24 10:33N 18°20' W 064°31'7813.0
2016-Nov-24 04:32N 17°47' W 063°16'  

Dump ship's entire track history